This is the latest recevied weather packets stored in our database for station/object K1BES. If no packets are shown the sender has not sent any weather packets the latest 10 day(s).
| Time | Temp. | Humidity | Pressure | Rain* | Wind** | Luminosity | Snow |
|---|---|---|---|---|---|---|---|
| 1777404144 | 28.89° C | 66% | 1020.1 hPa | 0 mm | - | 887 W/m² | - |
| 1777403840 | 28.33° C | 66% | 1019.9 hPa | 0 mm | - | 904 W/m² | - |
| 1777403535 | 28.33° C | 66% | 1020.2 hPa | 0 mm | - | 915 W/m² | - |
| 1777403235 | 28.33° C | 65% | 1020 hPa | 0 mm | - | 931 W/m² | - |
| 1777402930 | 28.33° C | 65% | 1020.1 hPa | 0 mm | - | 942 W/m² | - |
| 1777402625 | 28.89° C | 61% | 1020.2 hPa | 0 mm | - | 953 W/m² | - |
| 1777402324 | 28.89° C | 63% | 1020.4 hPa | 0 mm | - | 962 W/m² | - |
| 1777402023 | 28.89° C | 64% | 1020.4 hPa | 0 mm | - | 973 W/m² | - |
| 1777401723 | 28.89° C | 64% | 1020.3 hPa | 0 mm | - | 984 W/m² | - |
| 1777401419 | 28.89° C | 64% | 1020.3 hPa | 0 mm | - | 993 W/m² | - |
| 1777401114 | 29.44° C | 61% | 1020.3 hPa | 0 mm | - | 1002 W/m² | - |
| 1777400810 | 28.89° C | 63% | 1020.3 hPa | 0 mm | - | 1008 W/m² | - |
| 1777400507 | 28.89° C | 64% | 1020.2 hPa | 0 mm | - | 1016 W/m² | - |
| 1777400204 | 28.89° C | 64% | 1020.4 hPa | 0 mm | - | 1021 W/m² | - |
| 1777399899 | 29.44° C | 64% | 1020.3 hPa | 0 mm | - | 1028 W/m² | - |
| 1777399597 | 29.44° C | 65% | 1020.5 hPa | 0 mm | - | 1028 W/m² | - |
| 1777399294 | 29.44° C | 63% | 1020.4 hPa | 0 mm | - | 1033 W/m² | - |
| 1777398992 | 29.44° C | 63% | 1020.3 hPa | 0 mm | - | 1025 W/m² | - |
| 1777398689 | 29.44° C | 61% | 1020.3 hPa | 0 mm | - | 1033 W/m² | - |
| 1777398385 | 30° C | 60% | 1020.3 hPa | 0 mm | - | 1042 W/m² | - |
| 1777398082 | 30.56° C | 58% | 1020.7 hPa | 0 mm | - | 1041 W/m² | - |
| 1777397779 | 30° C | 58% | 1020.8 hPa | 0 mm | - | 1048 W/m² | - |
| 1777397474 | 30° C | 57% | 1020.6 hPa | 0 mm | - | 1039 W/m² | - |
| 1777397170 | 30° C | 57% | 1020.6 hPa | 0 mm | - | 1044 W/m² | - |
| 1777396868 | 30° C | 55% | 1020.8 hPa | 0 mm | - | 1040 W/m² | - |
* Rain latest hour (hover to see other rain measurements)
** Current wind speed in m/s (hover to see current wind gust speed)